Waukesha, WI

2:22 PM CDT on July 25, 2016 (GMT -0500)
Deer Path | | Change Station

Elev 970 ft 42.98 °N, 88.20 °W | Updated 6 seconds ago

Scattered Clouds
Scattered Clouds
82.3 °F
Feels Like 84 °F
N
8.0
Wind Variable Wind from North
Gusts 12.0 mph

Today
High -- | Low -- °F
--% Chance of Precip.
Yesterday
High -- | Low -- °F
Precip. -- in
Pressure 30.01 in
Visibility 10.0 miles
Clouds Scattered Clouds 4500 ft
Heat Index 84 °F
Dew Point 65 °F
Humidity 56%
Rainfall 0.00 in
Snow Depth Not available.
5:36 AM 8:21 PM
Waning Gibbous, 63% visible
METAR KUES 251845Z 29008KT 10SM SCT045 27/17 A3001
Pressure 30.01 in
Visibility 10.0 miles
Clouds Scattered Clouds 4500 ft
Heat Index 84 °F
Dew Point 65 °F
Humidity 56%
Rainfall 0.00 in
Snow Depth Not available.
5:36 AM 8:21 PM
Waning Gibbous, 63% visible
METAR KUES 251845Z 29008KT 10SM SCT045 27/17 A3001

10-Day Weather Forecast

Almanac

Astronomy

Jul. 25, 2016 Rise Set
Actual Time
Civil Twilight
Nautical Twilight
Astronomical Twilight
Moon
Length of Visible Light
Length of Day
Tomorrow will be .
, % of the Moon is Illuminated

Today's Extremes

State Highs State Lows

Community

WunderPhotos

Upload Photos

1,927,388 photos uploaded!

WunderBlog® & News

Nearby

Air Quality

  Air Quality AQ Index Pollutant
Not available.

Snow Depth

Station Depth Elevation

Earthquake Activity

City Distance Mag. Time & Date
Minimum magnitude displayed is 2.5.

Coastal Water Temperatures

Place Temperature

Stations

Nearby Weather Stations

Station Location Temp. Windchill Dew Point Humidity Wind Precip. Elev Updated Type
                   

Watches & Warnings

There are currently no watches in effect.